Weather observations for the past three days for
Fort Lewis / Gray U. S. Army Airfield
Metric (Imperial)
Date Time (pdt) Wind (kph) Vis. (km) Weather Sky Cond. Temperature (ºC) Relative Humidity Wind Chill (°C) Heat Index (°C) Pressure Precipitation (cm)
Air Dwpt 6 hour altimeter (cm) sea level (mb) 1 hr 3 hr 6 hr
Max. Min.
07 18:55 SW 7 16.09 Fair CLR 18 6.5 47% 76.2 1016.3
07 17:55 W 6 16.09 Fair CLR 18.3 6.2 45% 76.25 1016.9
07 16:55 W 11 16.09 Fair CLR 18.5 6.7 19 13.8 46% 76.28 1017.3
07 15:55 W 9 16.09 A Few Clouds FEW190 18.4 6.9 47% 76.3 1017.6
07 14:55 W 9 16.09 A Few Clouds FEW190 18.6 6.7 46% 76.33 1017.9
07 13:55 Calm 16.09 A Few Clouds FEW038 FEW190 16.8 6.3 50% 76.38 1018.6
07 12:55 W 9 16.09 Mostly Cloudy BKN037 17.4 6.9 50% 76.43 1019.3
07 11:55 Calm 16.09 Overcast OVC034 15.6 6.3 54% 76.45 1019.6
07 10:55 Calm 16.09 Overcast OVC032 13.7 5.6 14 9.9 58% 76.48 1020.0
07 09:55 E 7 16.09 Overcast SCT023 OVC031 13.5 6.6 63% 76.48 1020.0
07 08:55 Calm 16.09 Overcast OVC033 12.2 7.3 72% 76.5 1020.3
07 07:55 SE 6 16.09 Overcast OVC016 10.6 6.4 75% 76.53 1020.7
07 06:55 E 7 16.09 Overcast OVC015 10.4 6.5 77% 76.5 1020.4
07 05:55 E 7 16.09 Overcast BKN016 OVC027 10.1 6.4 78% 76.48 1020.0
07 04:55 E 9 16.09 Overcast OVC018 10.4 6.4 12.6 10.3 76% 76.5 1020.3
07 03:55 E 7 16.09 Overcast OVC020 10.5 6.4 76% 76.53 1020.7
07 02:55 E 9 16.09 Overcast OVC032 10.9 6.4 74% 76.5 1020.3
07 01:55 SE 11 16.09 Overcast OVC030 11.7 6.6 71% 76.53 1020.7
07 00:55 SE 9 16.09 Overcast OVC028 12 6.5 69% 76.56 1021.0
06 23:55 SE 7 16.09 Overcast OVC024 12.1 7.2 72% 76.53 1020.7
06 22:55 SE 13 16.09 Overcast SCT013 OVC021 12.5 7.6 15.9 12.3 72% 76.53 1020.7
06 21:55 S 13 16.09 Overcast SCT013 OVC019 13 8.5 74% 76.53 1020.7
06 19:55 SE 13 16.09 Overcast OVC026 13.8 8.6 71% 76.48 1020.0
06 18:55 S 13 16.09 Overcast OVC026 14.6 8.3 66% 76.48 1020.0
06 17:55 S 17 16.09 Overcast OVC029 15.3 8.5 64% 76.48 1020.0
06 16:55 S 17 16.09 Overcast OVC027 15.6 8.6 16.7 13.8 63% 76.48 1020.0
06 15:55 S 20 16.09 Overcast OVC028 16.4 8.4 59% 76.48 1020.0
06 14:55 S 19 16.09 Overcast OVC027 15.9 8.4 61% 76.5 1020.3
06 13:55 S 22 16.09 Overcast OVC026 15.9 8.1 60% 76.5 1020.3
06 12:55 S 19 G 33 16.09 Overcast OVC021 14.7 8.2 65% 76.48 1020.0
06 11:55 S 13 16.09 Overcast OVC017 14.3 8.9 70% 76.48 1020.0
06 10:55 S 11 16.09 Overcast OVC014 13.7 9.3 13.9 11 75% 76.48 1020.0
06 09:55 S 11 16.09 Overcast OVC008 12.5 9.3 81% 76.48 1020.0
06 08:55 S 9 16.09 Overcast OVC008 12.1 9.5 84% 76.43 1019.3
06 07:55 S 11 16.09 Overcast OVC008 11.1 9 87% 76.43 1019.3
06 06:55 S 9 14.48 Overcast OVC007 11.5 9.7 89% 76.4 1018.9
06 05:55 S 7 9.66 Fog/Mist OVC007 11.3 9.5 89% 76.38 1018.6
06 04:55 SE 9 16.09 Overcast OVC008 11.3 9.4 13.6 10.7 88% 76.35 1018.3
06 03:55 S 11 16.09 Overcast OVC011 12.1 9.3 83% 76.33 1017.9
06 02:55 E 7 16.09 Overcast OVC015 11.8 9.7 87% 76.28 1017.3
06 01:55 Calm 16.09 Overcast OVC016 11.7 9.8 88% 76.28 1017.3
06 00:55 SE 6 16.09 Mostly Cloudy BKN011 11.8 9.4 85% 76.25 1016.9
05 23:55 SW 6 16.09 Partly Cloudy SCT014 12.9 9.9 82% 76.2 1016.3
05 22:55 S 6 16.09 Fair CLR 13.4 10.2 18.7 13.4 81% 76.17 1015.9
05 21:55 S 6 16.09 Fair CLR 14.4 10.6 78% 76.15 1015.6
05 20:55 S 9 16.09 Fair CLR 16.2 11.1 72% 76.12 1015.2
05 19:55 SE 7 16.09 Fair CLR 17.3 10.9 66% 76.07 1014.5
05 18:55 S 9 16.09 Fair CLR 18.3 11.1 63% 76.05 1014.2
05 17:55 S 9 16.09 Partly Cloudy SCT025 18 11.1 64% 76.07 1014.5
05 16:55 S 11 16.09 Mostly Cloudy BKN026 18.2 10.8 18.7 14.6 62% 76.1 1014.9
05 14:55 S 19 16.09 Overcast OVC024 17.5 10.1 62% 76.15 1015.6
05 13:55 S 7 16.09 Overcast OVC023 16.5 9.9 65% 76.17 1015.9
05 12:55 S 9 16.09 Overcast OVC021 16.1 10 67% 76.17 1015.9
05 11:55 SE 9 16.09 Overcast OVC019 15.3 9.6 69% 76.2 1016.3
05 10:55 S 11 16.09 Overcast OVC018 14.6 9.6 14.6 12.7 72% 76.17 1015.9
05 09:55 S 9 16.09 Overcast OVC017 14.2 9.4 73% 76.15 1015.6
05 08:55 S 13 16.09 Overcast OVC016 13.8 9.6 76% 76.12 1015.2
05 07:55 S 7 16.09 Overcast OVC014 13.5 9.7 78% 76.12 1015.2
05 06:55 SE 9 16.09 Overcast OVC015 13.4 9.6 78% 76.07 1014.5
05 05:55 SE 11 16.09 Overcast OVC013 13.5 10.1 80% 76.02 1013.8
05 04:55 SE 7 16.09 Overcast OVC014 13 9.8 13.4 10 81% 76 1013.4
05 03:55 S 6 16.09 Overcast OVC012 12.8 10 83% 76 1013.4
05 02:55 S 6 16.09 Overcast OVC012 12.7 10.1 84% 75.97 1013.1
05 01:55 SE 6 16.09 Overcast OVC012 11.9 9.8 87% 75.95 1012.8
05 00:55 S 11 16.09 Partly Cloudy SCT015 11.9 9.8 87% 75.92 1012.4
04 23:55 SE 6 16.09 Fair CLR 12.5 9.5 82% 75.9 1012.1
04 22:55 S 9 16.09 Fair CLR 13.5 10.1 25 13.4 80% 75.84 1011.4
04 21:55 SW 11 16.09 Fair CLR 13.9 10.1 78% 75.82 1011.1
04 20:55 SW 19 16.09 Fair CLR 15.4 10.4 72% 75.77 1010.4
04 19:55 SW 19 16.09 Fair CLR 18 11 64% 75.72 1009.7
Date Time (pdt) Wind (kph) Vis. (km) Weather Sky Cond. Air Dwpt Max. Min. Relative Humidity Wind Chill (°C) Heat Index (°C) altimeter (cm) sea level (mb) 1 hr 3 hr 6 hr
6 hour
Temperature (ºC) Pressure Precipitation (cm)